Ncc Najd — HZAK — position and weather

sailwx.info

Track history (hours):
 
Tides and Currents Weather Stations Pressure Air Temp Water Temp Dewpoint Dewpoint Depression Visibility Wind Speed Wind Dir Waves Ship Positions

Ncc Najd

Last reported at 2015-Jul-07 14:33 UTC. Time now 2015-Jul-07 15:26 UTC.
Position N 31°24' E 121°34'.

Length 183 m; draft 7.8 m.

Type: Tanker. MMSI: 403579000.

Date/timePositionNaut miles runAvg speedWind from/ knotsBaromVisibWave heightAir tempDewpointWater temp
2015-Jul-07 14:33N 31°24' E 121°34'9 8.7
2015-Jul-07 13:33N 31°29' E 121°26'8 8.5
2015-Jul-07 12:33N 31°34' E 121°18'1010.2
2015-Jul-07 11:33N 31°41' E 121°10'1211.8
2015-Jul-07 10:33N 31°47' E 120°57'1312.6
2015-Jul-07 09:33N 31°58' E 120°51'1212.2
2015-Jul-07 08:33N 31°60' E 120°37'8 7.9
2015-Jul-07 07:33N 31°60' E 120°27'0 0.0
2015-Jul-07 04:05N 31°60' E 120°27'0 0.0
2015-Jul-07 02:11N 31°60' E 120°27'0 0.0
2015-Jul-06 22:11N 31°60' E 120°27'0 0.0
2015-Jul-06 20:17N 31°60' E 120°27'0 0.0
2015-Jul-06 19:11N 31°60' E 120°27'0 0.0
2015-Jul-06 18:11N 31°60' E 120°27'0 0.0
2015-Jul-06 13:17N 31°60' E 120°27'0 0.1
2015-Jul-06 12:33N 31°60' E 120°27'6 5.5
2015-Jul-06 11:31N 32°01' E 120°34'1212.3
2015-Jul-06 10:33N 32°01' E 120°48'1313.1
2015-Jul-06 09:32N 31°49' E 120°55'1313.4
2015-Jul-06 08:32N 31°42' E 121°09'1010.2
2015-Jul-06 07:33N 31°35' E 121°17'0 0.1
2015-Jul-06 06:32N 31°35' E 121°17'0 0.1
2015-Jul-06 05:32N 31°35' E 121°17'0 0.0
2015-Jul-06 04:08N 31°35' E 121°17'0 0.0
2015-Jul-06 03:32N 31°35' E 121°17'0 0.0
2015-Jul-06 01:29N 31°35' E 121°17'0 0.0
2015-Jul-05 23:23N 31°35' E 121°17'0 0.0
2015-Jul-05 22:23N 31°35' E 121°17'0 0.0
2015-Jul-05 21:32N 31°35' E 121°17'0 0.0
2015-Jul-05 20:29N 31°35' E 121°17'0 0.1
2015-Jul-05 19:32N 31°35' E 121°17'0 0.0
2015-Jul-05 18:23N 31°35' E 121°17'0 0.1
2015-Jul-05 17:26N 31°35' E 121°17'0 0.0
2015-Jul-05 16:23N 31°35' E 121°17'0 0.0
2015-Jul-05 15:32N 31°35' E 121°17'0 0.0
2015-Jul-05 14:32N 31°35' E 121°17'0 0.0
2015-Jul-05 12:32N 31°35' E 121°17'0 0.0
2015-Jul-05 11:29N 31°35' E 121°17'0 0.0
2015-Jul-05 10:29N 31°35' E 121°17'0 0.0
2015-Jul-05 09:26N 31°35' E 121°17'0 0.0
2015-Jul-05 08:20N 31°35' E 121°17'0 0.0
2015-Jul-05 05:14N 31°35' E 121°17'0 0.0
2015-Jul-05 04:08N 31°35' E 121°17'0 0.0
2015-Jul-05 02:14N 31°35' E 121°17'0 0.0
2015-Jul-05 00:20N 31°35' E 121°17'0 0.0
2015-Jul-04 22:32N 31°35' E 121°17'0 0.0
2015-Jul-04 21:26N 31°35' E 121°17'0 0.1
2015-Jul-04 20:26N 31°35' E 121°17'0 0.1
2015-Jul-04 19:32N 31°35' E 121°17'0 0.0
2015-Jul-04 18:32N 31°35' E 121°17'0 0.0
2015-Jul-04 16:32N 31°35' E 121°17'0 0.0
2015-Jul-04 15:20N 31°35' E 121°17'0 0.0
2015-Jul-04 12:32N 31°35' E 121°17'0 0.0
2015-Jul-04 10:32N 31°35' E 121°17'0 0.0
2015-Jul-04 09:20N 31°35' E 121°17'0 0.1
2015-Jul-04 08:33N 31°35' E 121°17'9 8.7
2015-Jul-04 07:33N 31°30' E 121°25'9 8.6
2015-Jul-04 06:33N 31°24' E 121°33'10 9.8
2015-Jul-04 05:33N 31°19' E 121°43'1110.7
2015-Jul-04 04:33N 31°16' E 121°55'1212.3
2015-Jul-04 03:33N 31°12' E 122°08'1111.2
2015-Jul-04 02:33N 31°06' E 122°19'1211.3
2015-Jul-04 01:28N 31°07' E 122°34'4 4.4
2015-Jul-04 00:33N 31°09' E 122°38'0 0.1
2015-Jul-03 23:28N 31°09' E 122°38'0 0.1
2015-Jul-03 22:31N 31°09' E 122°38'0 0.4
2015-Jul-03 21:33N 31°09' E 122°38'0 0.1
2015-Jul-03 20:33N 31°09' E 122°38'0 0.1
2015-Jul-03 18:27N 31°09' E 122°38'0 0.1
2015-Jul-03 16:04N 31°09' E 122°37'2 4.3
2015-Jul-03 15:33N 31°07' E 122°40'3014.6
2015-Jul-03 13:28N 31°01' E 123°14'1714.3
2015-Jul-03 12:17N 30°45' E 123°21'1213.9
2015-Jul-03 11:25N 30°33' E 123°22'1413.0
2015-Jul-03 10:21N 30°19' E 123°20'1113.6
2015-Jul-03 09:32N 30°09' E 123°17'2813.3
2015-Jul-03 07:26N 29°53' E 122°50'1213.6
2015-Jul-03 06:31N 29°47' E 122°37'1313.6
2015-Jul-03 05:33N 29°44' E 122°22'1111.3
2015-Jul-03 04:33N 29°51' E 122°12'1110.7
2015-Jul-03 03:33N 29°56' E 122°01'1010.4
2015-Jul-03 02:33N 29°59' E 121°49'3 0.7
2015-Jul-02 21:22N 29°59' E 121°45'0 0.0
2015-Jul-02 04:33N 29°59' E 121°45'8 8.1
2015-Jul-02 03:33N 29°59' E 121°55'1413.7
2015-Jul-02 02:34N 29°55' E 122°10'1212.2
2015-Jul-02 01:33N 29°45' E 122°19'9 9.2
2015-Jul-02 00:33N 29°45' E 122°29'1 0.4
2015-Jul-01 21:31N 29°44' E 122°30'0 0.1
2015-Jul-01 20:25N 29°44' E 122°31'0 0.0
2015-Jul-01 17:13N 29°44' E 122°31'0 0.1
2015-Jul-01 15:25N 29°44' E 122°31'0 0.1
2015-Jul-01 12:31N 29°44' E 122°30'6 5.7
2015-Jul-01 11:33N 29°45' E 122°37'1612.0
2015-Jul-01 10:11N 29°33' E 122°50'31114.1
2015-Jun-30 12:13N 25°02' E 119°58'1116.2
2015-Jun-30 11:31N 24°54' E 119°50'3616.6
2015-Jun-30 09:21N 24°27' E 119°23'1316.5
2015-Jun-30 08:33N 24°18' E 119°13'3415.6
2015-Jun-30 06:23N 23°57' E 118°44'1315.4
2015-Jun-30 05:33N 23°49' E 118°33'27912.7
2015-Jun-29 07:33N 22°10' E 113°50'1212.4
2015-Jun-29 06:33N 22°22' E 113°47'1913.6
2015-Jun-29 05:07N 22°40' E 113°41'610.7
2015-Jun-29 04:33N 22°46' E 113°38'1110.6
2015-Jun-29 03:33N 22°56' E 113°34'1 0.2
2015-Jun-28 21:22N 22°57' E 113°33'0 0.0
2015-Jun-28 20:16N 22°57' E 113°33'0 0.0
2015-Jun-28 18:16N 22°57' E 113°33'0 0.0
2015-Jun-28 17:22N 22°57' E 113°33'0 0.0
2015-Jun-28 16:10N 22°57' E 113°33'0 0.0
2015-Jun-28 15:28N 22°57' E 113°33'0 0.0
2015-Jun-28 14:04N 22°57' E 113°33'0 0.0
2015-Jun-28 09:28N 22°57' E 113°33'0 0.0
2015-Jun-28 08:22N 22°57' E 113°33'0 0.0
2015-Jun-28 07:28N 22°57' E 113°33'0 0.0
2015-Jun-28 06:10N 22°57' E 113°33'0 0.0
2015-Jun-28 04:28N 22°57' E 113°33'0 0.0
2015-Jun-28 03:05N 22°57' E 113°33'0 0.5
2015-Jun-28 02:33N 22°57' E 113°33'1 0.6
2015-Jun-28 01:28N 22°56' E 113°34'0 0.0
2015-Jun-28 00:22N 22°56' E 113°34'0 0.0
2015-Jun-27 23:28N 22°56' E 113°34'0 0.0
2015-Jun-27 21:22N 22°56' E 113°34'0 0.0
2015-Jun-27 20:22N 22°56' E 113°34'0 0.0
2015-Jun-27 19:28N 22°56' E 113°34'0 0.0
2015-Jun-27 18:10N 22°56' E 113°34'0 0.0
2015-Jun-27 17:28N 22°56' E 113°34'0 0.0
2015-Jun-27 16:28N 22°56' E 113°34'0 0.0
2015-Jun-27 15:28N 22°56' E 113°34'  
Track history (hours):
 
Tides and Currents Weather Stations Pressure Air Temp Water Temp Dewpoint Dewpoint Depression Visibility Wind Speed Wind Dir Waves Ship Positions

Ncc Najd

Last reported at 2015-Jul-07 14:33 UTC. Time now 2015-Jul-07 15:26 UTC.
Position N 31°24' E 121°34'.

Length 183 m; draft 7.8 m.

Type: Tanker. MMSI: 403579000.

Date/timePositionNaut miles runAvg speedWind from/ knotsBaromVisibWave heightAir tempDewpointWater temp
2015-Jul-07 14:33N 31°24' E 121°34'9 8.7
2015-Jul-07 13:33N 31°29' E 121°26'8 8.5
2015-Jul-07 12:33N 31°34' E 121°18'1010.2
2015-Jul-07 11:33N 31°41' E 121°10'1211.8
2015-Jul-07 10:33N 31°47' E 120°57'1312.6
2015-Jul-07 09:33N 31°58' E 120°51'1212.2
2015-Jul-07 08:33N 31°60' E 120°37'8 7.9
2015-Jul-07 07:33N 31°60' E 120°27'0 0.0
2015-Jul-07 04:05N 31°60' E 120°27'0 0.0
2015-Jul-07 02:11N 31°60' E 120°27'0 0.0
2015-Jul-06 22:11N 31°60' E 120°27'0 0.0
2015-Jul-06 20:17N 31°60' E 120°27'0 0.0
2015-Jul-06 19:11N 31°60' E 120°27'0 0.0
2015-Jul-06 18:11N 31°60' E 120°27'0 0.0
2015-Jul-06 13:17N 31°60' E 120°27'0 0.1
2015-Jul-06 12:33N 31°60' E 120°27'6 5.5
2015-Jul-06 11:31N 32°01' E 120°34'1212.3
2015-Jul-06 10:33N 32°01' E 120°48'1313.1
2015-Jul-06 09:32N 31°49' E 120°55'1313.4
2015-Jul-06 08:32N 31°42' E 121°09'1010.2
2015-Jul-06 07:33N 31°35' E 121°17'0 0.1
2015-Jul-06 06:32N 31°35' E 121°17'0 0.1
2015-Jul-06 05:32N 31°35' E 121°17'0 0.0
2015-Jul-06 04:08N 31°35' E 121°17'0 0.0
2015-Jul-06 03:32N 31°35' E 121°17'0 0.0
2015-Jul-06 01:29N 31°35' E 121°17'0 0.0
2015-Jul-05 23:23N 31°35' E 121°17'0 0.0
2015-Jul-05 22:23N 31°35' E 121°17'0 0.0
2015-Jul-05 21:32N 31°35' E 121°17'0 0.0
2015-Jul-05 20:29N 31°35' E 121°17'0 0.1
2015-Jul-05 19:32N 31°35' E 121°17'0 0.0
2015-Jul-05 18:23N 31°35' E 121°17'0 0.1
2015-Jul-05 17:26N 31°35' E 121°17'0 0.0
2015-Jul-05 16:23N 31°35' E 121°17'0 0.0
2015-Jul-05 15:32N 31°35' E 121°17'0 0.0
2015-Jul-05 14:32N 31°35' E 121°17'0 0.0
2015-Jul-05 12:32N 31°35' E 121°17'0 0.0
2015-Jul-05 11:29N 31°35' E 121°17'0 0.0
2015-Jul-05 10:29N 31°35' E 121°17'0 0.0
2015-Jul-05 09:26N 31°35' E 121°17'0 0.0
2015-Jul-05 08:20N 31°35' E 121°17'0 0.0
2015-Jul-05 05:14N 31°35' E 121°17'0 0.0
2015-Jul-05 04:08N 31°35' E 121°17'0 0.0
2015-Jul-05 02:14N 31°35' E 121°17'0 0.0
2015-Jul-05 00:20N 31°35' E 121°17'0 0.0
2015-Jul-04 22:32N 31°35' E 121°17'0 0.0
2015-Jul-04 21:26N 31°35' E 121°17'0 0.1
2015-Jul-04 20:26N 31°35' E 121°17'0 0.1
2015-Jul-04 19:32N 31°35' E 121°17'0 0.0
2015-Jul-04 18:32N 31°35' E 121°17'0 0.0
2015-Jul-04 16:32N 31°35' E 121°17'0 0.0
2015-Jul-04 15:20N 31°35' E 121°17'0 0.0
2015-Jul-04 12:32N 31°35' E 121°17'0 0.0
2015-Jul-04 10:32N 31°35' E 121°17'0 0.0
2015-Jul-04 09:20N 31°35' E 121°17'0 0.1
2015-Jul-04 08:33N 31°35' E 121°17'9 8.7
2015-Jul-04 07:33N 31°30' E 121°25'9 8.6
2015-Jul-04 06:33N 31°24' E 121°33'10 9.8
2015-Jul-04 05:33N 31°19' E 121°43'1110.7
2015-Jul-04 04:33N 31°16' E 121°55'1212.3
2015-Jul-04 03:33N 31°12' E 122°08'1111.2
2015-Jul-04 02:33N 31°06' E 122°19'1211.3
2015-Jul-04 01:28N 31°07' E 122°34'4 4.4
2015-Jul-04 00:33N 31°09' E 122°38'0 0.1
2015-Jul-03 23:28N 31°09' E 122°38'0 0.1
2015-Jul-03 22:31N 31°09' E 122°38'0 0.4
2015-Jul-03 21:33N 31°09' E 122°38'0 0.1
2015-Jul-03 20:33N 31°09' E 122°38'0 0.1
2015-Jul-03 18:27N 31°09' E 122°38'0 0.1
2015-Jul-03 16:04N 31°09' E 122°37'2 4.3
2015-Jul-03 15:33N 31°07' E 122°40'3014.6
2015-Jul-03 13:28N 31°01' E 123°14'1714.3
2015-Jul-03 12:17N 30°45' E 123°21'1213.9
2015-Jul-03 11:25N 30°33' E 123°22'1413.0
2015-Jul-03 10:21N 30°19' E 123°20'1113.6
2015-Jul-03 09:32N 30°09' E 123°17'2813.3
2015-Jul-03 07:26N 29°53' E 122°50'1213.6
2015-Jul-03 06:31N 29°47' E 122°37'1313.6
2015-Jul-03 05:33N 29°44' E 122°22'1111.3
2015-Jul-03 04:33N 29°51' E 122°12'1110.7
2015-Jul-03 03:33N 29°56' E 122°01'1010.4
2015-Jul-03 02:33N 29°59' E 121°49'3 0.7
2015-Jul-02 21:22N 29°59' E 121°45'0 0.0
2015-Jul-02 04:33N 29°59' E 121°45'8 8.1
2015-Jul-02 03:33N 29°59' E 121°55'1413.7
2015-Jul-02 02:34N 29°55' E 122°10'1212.2
2015-Jul-02 01:33N 29°45' E 122°19'9 9.2
2015-Jul-02 00:33N 29°45' E 122°29'1 0.4
2015-Jul-01 21:31N 29°44' E 122°30'0 0.1
2015-Jul-01 20:25N 29°44' E 122°31'0 0.0
2015-Jul-01 17:13N 29°44' E 122°31'0 0.1
2015-Jul-01 15:25N 29°44' E 122°31'0 0.1
2015-Jul-01 12:31N 29°44' E 122°30'6 5.7
2015-Jul-01 11:33N 29°45' E 122°37'1612.0
2015-Jul-01 10:11N 29°33' E 122°50'31114.1
2015-Jun-30 12:13N 25°02' E 119°58'1116.2
2015-Jun-30 11:31N 24°54' E 119°50'3616.6
2015-Jun-30 09:21N 24°27' E 119°23'1316.5
2015-Jun-30 08:33N 24°18' E 119°13'3415.6
2015-Jun-30 06:23N 23°57' E 118°44'1315.4
2015-Jun-30 05:33N 23°49' E 118°33'27912.7
2015-Jun-29 07:33N 22°10' E 113°50'1212.4
2015-Jun-29 06:33N 22°22' E 113°47'1913.6
2015-Jun-29 05:07N 22°40' E 113°41'610.7
2015-Jun-29 04:33N 22°46' E 113°38'1110.6
2015-Jun-29 03:33N 22°56' E 113°34'1 0.2
2015-Jun-28 21:22N 22°57' E 113°33'0 0.0
2015-Jun-28 20:16N 22°57' E 113°33'0 0.0
2015-Jun-28 18:16N 22°57' E 113°33'0 0.0
2015-Jun-28 17:22N 22°57' E 113°33'0 0.0
2015-Jun-28 16:10N 22°57' E 113°33'0 0.0
2015-Jun-28 15:28N 22°57' E 113°33'0 0.0
2015-Jun-28 14:04N 22°57' E 113°33'0 0.0
2015-Jun-28 09:28N 22°57' E 113°33'0 0.0
2015-Jun-28 08:22N 22°57' E 113°33'0 0.0
2015-Jun-28 07:28N 22°57' E 113°33'0 0.0
2015-Jun-28 06:10N 22°57' E 113°33'0 0.0
2015-Jun-28 04:28N 22°57' E 113°33'0 0.0
2015-Jun-28 03:05N 22°57' E 113°33'0 0.5
2015-Jun-28 02:33N 22°57' E 113°33'1 0.6
2015-Jun-28 01:28N 22°56' E 113°34'0 0.0
2015-Jun-28 00:22N 22°56' E 113°34'0 0.0
2015-Jun-27 23:28N 22°56' E 113°34'0 0.0
2015-Jun-27 21:22N 22°56' E 113°34'0 0.0
2015-Jun-27 20:22N 22°56' E 113°34'0 0.0
2015-Jun-27 19:28N 22°56' E 113°34'0 0.0
2015-Jun-27 18:10N 22°56' E 113°34'0 0.0
2015-Jun-27 17:28N 22°56' E 113°34'0 0.0
2015-Jun-27 16:28N 22°56' E 113°34'0 0.0
2015-Jun-27 15:28N 22°56' E 113°34'  

Dump ship's entire track history